Time;durP1;ratioP1;P1;durP2;ratioP2;P2;SDS_P1;SDS_P2;PMS_P1;PMS_P2;Temp;Humidity;BMP_temperature;BMP_pressure;BME280_temperature;BME280_humidity;BME280_pressure;Samples;Min_cycle;Max_cycle;Signal;HPM_P1;HPM_P2
2024/02/26 00:00:28;;;;;;;;;4.33;4.33;;;;;13.78;100.00;98211.63;2107133;27;46385;-50
2024/02/26 00:01:32;;;;;;;;;7.00;6.00;;;;;13.78;100.00;98216.94;2106468;27;46678;-52
2024/02/26 00:02:37;;;;;;;;;6.00;6.00;;;;;13.76;100.00;98217.06;2106728;27;46572;-51
2024/02/26 00:03:38;;;;;;;;;7.00;7.00;;;;;13.76;100.00;98219.72;2094998;28;45638;-52
2024/02/26 00:04:39;;;;;;;;;7.00;7.00;;;;;13.80;100.00;98212.34;2095096;28;45558;-51
2024/02/26 00:05:39;;;;;;;;;6.67;6.67;;;;;13.81;100.00;98220.22;2102739;27;46840;-52
2024/02/26 00:06:42;;;;;;;;;1.00;1.00;;;;;13.81;100.00;98224.72;2106336;27;46599;-49
2024/02/26 00:07:43;;;;;;;;;7.00;5.75;;;;;13.80;100.00;98223.84;2105071;27;47174;-52
2024/02/26 00:08:44;;;;;;;;;7.25;7.25;;;;;13.83;100.00;98222.78;2106801;27;46752;-53
2024/02/26 00:09:45;;;;;;;;;6.00;6.00;;;;;13.80;100.00;98221.19;2107111;27;46637;-52
2024/02/26 00:10:45;;;;;;;;;6.33;6.00;;;;;13.82;100.00;98221.91;2106635;27;46388;-52
2024/02/26 00:11:45;;;;;;;;;5.67;5.67;;;;;13.84;100.00;98225.31;2106872;27;46583;-54
2024/02/26 00:12:47;;;;;;;;;7.67;7.67;;;;;13.86;100.00;98227.06;2098307;28;46207;-51
2024/02/26 00:13:47;;;;;;;;;6.00;6.00;;;;;13.83;100.00;98226.28;2098600;28;46711;-52
2024/02/26 00:14:49;;;;;;;;;5.00;5.00;;;;;13.84;100.00;98221.81;2106252;27;46679;-52
2024/02/26 00:15:49;;;;;;;;;7.00;7.00;;;;;13.86;100.00;98224.38;2106369;27;46382;-50
2024/02/26 00:16:50;;;;;;;;;7.00;5.00;;;;;13.84;100.00;98224.47;2107281;27;46260;-52
2024/02/26 00:17:50;;;;;;;;;5.00;5.00;;;;;13.85;100.00;98228.88;2106788;27;46867;-53
2024/02/26 00:18:50;;;;;;;;;8.00;7.00;;;;;13.84;100.00;98227.13;2106006;27;46295;-52
2024/02/26 00:19:51;;;;;;;;;4.00;4.00;;;;;13.85;100.00;98226.19;2107081;27;46831;-53
2024/02/26 00:20:51;;;;;;;;;7.00;6.33;;;;;13.86;100.00;98224.38;2105649;27;47016;-51
2024/02/26 00:21:53;;;;;;;;;5.00;4.67;;;;;13.85;100.00;98231.53;2103650;27;46185;-52
2024/02/26 00:22:53;;;;;;;;;5.00;4.00;;;;;13.86;100.00;98235.06;2106489;27;46931;-52
2024/02/26 00:23:54;;;;;;;;;6.33;5.67;;;;;13.85;100.00;98234.19;2096936;28;46311;-55
2024/02/26 00:24:54;;;;;;;;;4.00;4.00;;;;;13.84;100.00;98235.97;2097377;28;46302;-53
2024/02/26 00:25:54;;;;;;;;;5.00;5.00;;;;;13.84;100.00;98238.66;2105592;27;46383;-54
2024/02/26 00:26:55;;;;;;;;;4.33;4.33;;;;;13.87;100.00;98234.94;2106327;27;46975;-49
2024/02/26 00:27:55;;;;;;;;;5.00;5.00;;;;;13.89;100.00;98246.31;2108152;27;45887;-55
2024/02/26 00:28:55;;;;;;;;;4.00;4.00;;;;;13.87;100.00;98242.94;2106612;27;46507;-53
2024/02/26 00:29:56;;;;;;;;;5.67;5.00;;;;;13.89;100.00;98245.47;2089494;28;46441;-50
2024/02/26 00:30:56;;;;;;;;;6.00;5.00;;;;;13.90;100.00;98247.19;2090167;28;46301;-51
2024/02/26 00:31:57;;;;;;;;;4.00;4.00;;;;;13.90;100.00;98241.84;2106141;27;46950;-54
2024/02/26 00:32:57;;;;;;;;;4.33;4.33;;;;;13.90;100.00;98240.03;2107518;27;46439;-49
2024/02/26 00:33:57;;;;;;;;;4.67;4.67;;;;;13.91;100.00;98232.88;2106139;27;46470;-53
2024/02/26 00:34:58;;;;;;;;;5.00;5.00;;;;;13.92;100.00;98240.75;2106367;27;46443;-53
2024/02/26 00:35:58;;;;;;;;;5.67;4.00;;;;;13.87;100.00;98239.41;2106629;27;45517;-53
2024/02/26 00:36:58;;;;;;;;;5.00;5.00;;;;;13.88;100.00;98243.78;2106375;27;46215;-52
2024/02/26 00:38:00;;;;;;;;;5.33;4.67;;;;;13.87;100.00;98242.94;2106793;27;46107;-53
2024/02/26 00:39:01;;;;;;;;;4.00;4.00;;;;;13.87;100.00;98240.25;2103027;27;46782;-52
2024/02/26 00:40:01;;;;;;;;;4.67;4.67;;;;;13.87;100.00;98242.94;2106137;27;46384;-54
2024/02/26 00:41:02;;;;;;;;;3.00;3.00;;;;;13.89;100.00;98250.81;2106879;27;46438;-53
2024/02/26 00:42:02;;;;;;;;;4.00;4.00;;;;;13.90;100.00;98234.69;2105837;27;46220;-54
2024/02/26 00:43:03;;;;;;;;;3.67;3.00;;;;;13.88;100.00;98239.28;2099147;28;46318;-54
2024/02/26 00:44:03;;;;;;;;;4.00;4.00;;;;;13.89;100.00;98245.47;2097957;28;46613;-53
2024/02/26 00:45:04;;;;;;;;;3.00;3.00;;;;;13.85;100.00;98244.88;2087304;28;47328;-52
2024/02/26 00:46:04;;;;;;;;;3.00;3.00;;;;;13.87;100.00;98247.41;2088657;28;46798;-55
2024/02/26 00:47:05;;;;;;;;;3.00;3.00;;;;;13.88;100.00;98246.44;2106526;27;46329;-53
2024/02/26 00:48:07;;;;;;;;;6.00;5.00;;;;;13.88;100.00;98251.78;2105980;27;46486;-53
2024/02/26 00:49:07;;;;;;;;;5.00;5.00;;;;;13.87;100.00;98242.94;2107321;27;46572;-51
2024/02/26 00:50:08;;;;;;;;;4.67;4.00;;;;;13.91;100.00;98254.22;2106913;27;46252;-52
2024/02/26 00:51:08;;;;;;;;;3.00;3.00;;;;;13.92;100.00;98247.91;2106464;27;46331;-53
2024/02/26 00:52:08;;;;;;;;;6.00;6.00;;;;;13.92;100.00;98254.09;2106560;27;46216;-54
2024/02/26 00:53:09;;;;;;;;;6.00;5.00;;;;;13.90;100.00;98256.03;2106675;27;46798;-53
2024/02/26 00:54:09;;;;;;;;;3.33;3.33;;;;;13.89;100.00;98256.13;2104559;27;47187;-53
2024/02/26 00:55:09;;;;;;;;;4.67;4.67;;;;;13.89;100.00;98258.81;2104752;27;46317;-54
2024/02/26 00:56:10;;;;;;;;;3.67;3.67;;;;;13.87;100.00;98258.94;2106994;27;46482;-52
2024/02/26 00:57:11;;;;;;;;;7.67;5.00;;;;;13.85;100.00;98255.53;2106874;27;46188;-52
2024/02/26 00:58:11;;;;;;;;;3.00;3.00;;;;;13.84;100.00;98259.97;2106510;27;46801;-53
2024/02/26 00:59:12;;;;;;;;;3.67;3.67;;;;;13.86;100.00;98267.03;2107016;27;46384;-52
2024/02/26 01:00:13;;;;;;;;;4.00;4.00;;;;;13.81;100.00;98257.53;2105659;27;45840;-52
2024/02/26 01:01:13;;;;;;;;;4.00;4.00;;;;;13.83;100.00;98257.44;2093228;28;46913;-52
2024/02/26 01:02:13;;;;;;;;;3.67;3.67;;;;;13.84;100.00;98265.31;2092557;28;46919;-54
2024/02/26 01:03:14;;;;;;;;;4.33;2.00;;;;;13.90;100.00;98263.16;2107203;27;45964;-51
2024/02/26 01:04:15;;;;;;;;;4.75;4.00;;;;;13.87;100.00;98263.41;2106914;27;46360;-51
2024/02/26 01:05:16;;;;;;;;;4.00;4.00;;;;;13.81;100.00;98270.88;2107518;27;46164;-52
2024/02/26 01:06:17;;;;;;;;;6.00;3.00;;;;;13.85;100.00;98266.19;2108210;27;46593;-53
2024/02/26 01:07:17;;;;;;;;;4.67;4.00;;;;;13.73;100.00;98262.63;2107592;27;46432;-51
2024/02/26 01:08:17;;;;;;;;;6.00;4.00;;;;;13.83;100.00;98258.28;2107911;27;46252;-50
2024/02/26 01:09:18;;;;;;;;;4.00;4.00;;;;;13.88;100.00;98265.09;2105250;27;46321;-51
2024/02/26 01:10:18;;;;;;;;;4.67;4.67;;;;;13.89;100.00;98265.00;2107978;27;46227;-51
2024/02/26 01:11:19;;;;;;;;;5.33;4.67;;;;;13.84;100.00;98270.63;2106872;27;46718;-53
2024/02/26 01:12:19;;;;;;;;;4.00;4.00;;;;;13.79;100.00;98274.63;2107068;27;46477;-54
2024/02/26 01:13:20;;;;;;;;;4.00;4.00;;;;;13.82;100.00;98274.38;2108307;27;46406;-54
2024/02/26 01:14:20;;;;;;;;;4.00;4.00;;;;;13.81;100.00;98276.19;2107735;27;46406;-54
2024/02/26 01:15:23;;;;;;;;;5.00;5.00;;;;;13.79;100.00;98269.28;2108788;27;46272;-52
2024/02/26 01:16:24;;;;;;;;;4.50;4.50;;;;;13.81;100.00;98270.88;2107683;27;46237;-52
2024/02/26 01:17:24;;;;;;;;;5.33;5.33;;;;;13.77;100.00;98273.88;2108498;27;46544;-52
2024/02/26 01:18:24;;;;;;;;;4.00;4.00;;;;;13.84;100.00;98269.78;2108642;27;46659;-54
2024/02/26 01:19:25;;;;;;;;;5.00;5.00;;;;;13.78;100.00;98268.44;2107291;27;46469;-51
2024/02/26 01:20:25;;;;;;;;;5.00;5.00;;;;;13.79;100.00;98277.28;2107553;27;45931;-53
2024/02/26 01:21:29;;;;;;;;;4.33;4.33;;;;;13.78;100.00;98275.59;2108432;27;45657;-53
2024/02/26 01:22:29;;;;;;;;;5.50;5.25;;;;;13.81;100.00;98270.88;2108473;27;46751;-51
2024/02/26 01:23:29;;;;;;;;;6.67;5.00;;;;;13.86;100.00;98275.03;2107624;27;46361;-51
2024/02/26 01:24:29;;;;;;;;;5.00;5.00;;;;;13.92;100.00;98280.75;2108817;27;46656;-50
2024/02/26 01:25:30;;;;;;;;;4.00;4.00;;;;;13.89;100.00;98275.66;2106028;27;45632;-52
2024/02/26 01:26:30;;;;;;;;;5.67;4.00;;;;;13.83;100.00;98270.75;2107923;27;46750;-51
2024/02/26 01:27:31;;;;;;;;;7.67;6.00;;;;;13.84;100.00;98272.47;2105106;27;46548;-49
2024/02/26 01:28:31;;;;;;;;;3.67;3.33;;;;;13.87;100.00;98271.41;2101096;28;46440;-52
2024/02/26 01:29:31;;;;;;;;;4.33;4.00;;;;;13.90;100.00;98279.16;2098860;28;46381;-54
2024/02/26 01:30:32;;;;;;;;;3.67;3.67;;;;;13.92;100.00;98275.41;2108587;27;46486;-52
2024/02/26 01:31:32;;;;;;;;;4.00;4.00;;;;;13.91;100.00;98286.19;2107718;27;46700;-50
2024/02/26 01:32:32;;;;;;;;;4.67;4.67;;;;;13.90;100.00;98287.16;2107787;27;47171;-52
2024/02/26 01:33:33;;;;;;;;;4.00;4.00;;;;;13.88;100.00;98281.09;2107658;27;46170;-51
2024/02/26 01:34:33;;;;;;;;;3.33;2.33;;;;;13.86;100.00;98283.88;2107974;27;46830;-52
2024/02/26 01:35:34;;;;;;;;;5.67;5.00;;;;;13.82;100.00;98287.72;2107509;27;47047;-52
2024/02/26 01:36:34;;;;;;;;;4.00;4.00;;;;;13.91;100.00;98284.38;2105280;27;46789;-53
2024/02/26 01:37:34;;;;;;;;;2.67;2.00;;;;;13.91;100.00;98280.88;2106350;27;46206;-53
2024/02/26 01:38:35;;;;;;;;;3.67;3.67;;;;;13.92;100.00;98278.09;2108621;27;46298;-53
2024/02/26 01:39:35;;;;;;;;;4.00;4.00;;;;;13.91;100.00;98281.72;2108169;27;46818;-50
2024/02/26 01:40:36;;;;;;;;;5.00;3.67;;;;;13.89;100.00;98280.13;2108336;27;46368;-54
2024/02/26 01:41:36;;;;;;;;;5.33;5.00;;;;;13.91;100.00;98287.06;2106544;27;46190;-53
2024/02/26 01:42:40;;;;;;;;;4.00;4.00;;;;;13.88;100.00;98281.09;2108646;27;46836;-54
2024/02/26 01:43:41;;;;;;;;;4.00;4.00;;;;;13.83;100.00;98281.41;2107055;27;46393;-52
2024/02/26 01:44:42;;;;;;;;;5.33;5.00;;;;;13.88;100.00;98281.09;2107241;27;46343;-55
2024/02/26 01:45:42;;;;;;;;;4.00;3.25;;;;;13.84;100.00;98281.31;2107843;27;46342;-54
2024/02/26 01:46:43;;;;;;;;;4.00;4.00;;;;;13.88;100.00;98289.94;2108273;27;46211;-52
2024/02/26 01:47:43;;;;;;;;;5.67;4.00;;;;;13.79;100.00;98291.47;2107792;27;46402;-52
2024/02/26 01:48:47;;;;;;;;;5.00;4.00;;;;;13.89;100.00;98288.13;2108410;27;46196;-51
2024/02/26 01:49:47;;;;;;;;;5.00;4.00;;;;;13.87;100.00;98288.25;2107052;27;46898;-53
2024/02/26 01:50:47;;;;;;;;;1.00;1.00;;;;;13.87;100.00;98285.59;2108150;27;46570;-52
2024/02/26 01:51:48;;;;;;;;;6.00;4.00;;;;;13.84;100.00;98291.13;2107688;27;46195;-50
2024/02/26 01:52:50;;;;;;;;;5.00;4.00;;;;;13.84;100.00;98283.97;2106557;27;46228;-53
2024/02/26 01:53:51;;;;;;;;;2.50;2.00;;;;;13.81;100.00;98294.88;2106229;27;46962;-54
2024/02/26 01:54:52;;;;;;;;;4.75;3.75;;;;;13.84;100.00;98291.13;2099039;28;47088;-52
2024/02/26 01:55:52;;;;;;;;;3.00;3.00;;;;;13.82;100.00;98290.38;2098716;28;46399;-54
2024/02/26 01:56:53;;;;;;;;;3.67;3.33;;;;;13.84;100.00;98291.97;2107244;27;46733;-52
2024/02/26 01:57:54;;;;;;;;;2.50;2.50;;;;;13.86;100.00;98291.03;2107257;27;46537;-53
2024/02/26 01:58:55;;;;;;;;;4.00;4.00;;;;;14.00;100.00;98290.84;2108115;27;46463;-52
2024/02/26 01:59:55;;;;;;;;;5.00;4.00;;;;;13.92;100.00;98291.41;2108230;27;46628;-52
2024/02/26 02:00:57;;;;;;;;;3.00;3.00;;;;;13.94;100.00;98294.81;2107199;27;45746;-53
2024/02/26 02:02:01;;;;;;;;;6.25;5.00;;;;;14.02;100.00;98291.59;2108423;27;46888;-53
2024/02/26 02:03:03;;;;;;;;;4.00;4.00;;;;;14.01;100.00;98295.22;2106897;27;46571;-55
2024/02/26 02:04:04;;;;;;;;;4.50;4.25;;;;;13.96;100.00;98295.53;2107387;27;45958;-53
2024/02/26 02:05:06;;;;;;;;;6.00;6.00;;;;;13.99;100.00;98298.00;2108907;27;46686;-51
2024/02/26 02:06:07;;;;;;;;;5.75;4.75;;;;;13.96;100.00;98290.22;2106792;27;46790;-52
2024/02/26 02:07:07;;;;;;;;;5.67;3.67;;;;;13.96;100.00;98292.88;2108286;27;46386;-52
2024/02/26 02:08:11;;;;;;;;;3.00;3.00;;;;;13.96;100.00;98290.22;2107709;27;46194;-51
2024/02/26 02:09:11;;;;;;;;;3.25;3.00;;;;;13.93;100.00;98293.13;2107519;27;47017;-50
2024/02/26 02:10:11;;;;;;;;;3.67;3.67;;;;;13.95;100.00;98304.50;2108460;27;46236;-51
2024/02/26 02:11:12;;;;;;;;;4.00;3.00;;;;;13.98;100.00;98295.47;2105052;27;45641;-53
2024/02/26 02:12:12;;;;;;;;;3.00;3.00;;;;;13.99;100.00;98299.81;2107145;27;46909;-52
2024/02/26 02:13:13;;;;;;;;;4.00;2.67;;;;;13.99;100.00;98302.50;2108129;27;46451;-51
2024/02/26 02:14:14;;;;;;;;;3.00;3.00;;;;;13.98;100.00;98298.97;2108297;27;46835;-50
2024/02/26 02:15:15;;;;;;;;;4.00;4.00;;;;;13.98;100.00;98298.97;2106475;27;46466;-51
2024/02/26 02:16:15;;;;;;;;;1.33;1.33;;;;;13.99;100.00;98300.69;2108728;27;46816;-51
2024/02/26 02:17:16;;;;;;;;;5.00;3.00;;;;;13.96;100.00;98298.22;2106774;27;46402;-50
2024/02/26 02:18:16;;;;;;;;;4.00;3.33;;;;;13.93;100.00;98297.59;2108470;27;46530;-51
2024/02/26 02:19:16;;;;;;;;;2.00;2.00;;;;;13.91;100.00;98299.53;2107796;27;47872;-53
2024/02/26 02:20:18;;;;;;;;;4.67;3.67;;;;;13.96;100.00;98303.53;2107658;27;46553;-52
2024/02/26 02:21:18;;;;;;;;;3.00;2.25;;;;;13.86;100.00;98307.88;2098611;28;46724;-51
2024/02/26 02:22:18;;;;;;;;;3.00;3.00;;;;;13.89;100.00;98298.78;2098272;28;46130;-50
2024/02/26 02:23:19;;;;;;;;;11.00;8.00;;;;;13.86;100.00;98309.69;2106267;27;46740;-53
2024/02/26 02:24:19;;;;;;;;;15.00;13.00;;;;;13.86;100.00;98302.53;2109609;27;46586;-52
2024/02/26 02:25:20;;;;;;;;;34.50;32.00;;;;;13.91;100.00;98299.53;2107938;27;46657;-52
2024/02/26 02:26:20;;;;;;;;;36.00;33.25;;;;;13.87;100.00;98304.25;2107818;27;46649;-50
2024/02/26 02:27:21;;;;;;;;;25.00;24.00;;;;;13.93;100.00;98310.94;2105876;27;46169;-51
2024/02/26 02:28:23;;;;;;;;;16.67;14.00;;;;;13.97;100.00;98310.56;2098476;28;46425;-51
2024/02/26 02:29:23;;;;;;;;;9.25;7.25;;;;;13.98;100.00;98303.47;2086747;28;46555;-53
2024/02/26 02:30:27;;;;;;;;;6.00;6.00;;;;;14.00;100.00;98309.53;2095244;28;46857;-52
2024/02/26 02:31:28;;;;;;;;;3.00;3.00;;;;;13.96;100.00;98311.53;2104947;27;46771;-52
2024/02/26 02:32:29;;;;;;;;;3.33;3.33;;;;;13.97;100.00;98307.91;2107304;27;46177;-52
2024/02/26 02:33:29;;;;;;;;;2.25;2.25;;;;;13.96;100.00;98306.22;2106630;27;46866;-49
2024/02/26 02:34:31;;;;;;;;;5.00;3.00;;;;;13.90;100.00;98313.81;2106897;27;45797;-51
2024/02/26 02:35:32;;;;;;;;;3.50;2.00;;;;;13.89;100.00;98306.78;2107029;27;46564;-50
2024/02/26 02:36:32;;;;;;;;;4.00;2.67;;;;;13.92;100.00;98314.56;2106641;27;46651;-50
2024/02/26 02:37:32;;;;;;;;;4.33;1.67;;;;;13.90;100.00;98312.00;2106174;27;46543;-58
2024/02/26 02:38:33;;;;;;;;;2.00;2.00;;;;;13.91;100.00;98321.72;2106659;27;46510;-52
2024/02/26 02:39:34;;;;;;;;;2.25;1.25;;;;;13.96;100.00;98324.03;2107381;27;46338;-51
2024/02/26 02:40:34;;;;;;;;;4.00;2.67;;;;;13.98;100.00;98319.47;2108224;27;46425;-49
2024/02/26 02:41:34;;;;;;;;;0.00;0.00;;;;;14.12;100.00;98314.81;2107201;27;46565;-53
2024/02/26 02:42:35;;;;;;;;;1.67;1.00;;;;;14.14;100.00;98314.69;2108811;27;46385;-53
2024/02/26 02:43:35;;;;;;;;;3.00;2.00;;;;;14.17;100.00;98318.94;2107502;27;46368;-55
2024/02/26 02:44:36;;;;;;;;;2.00;2.00;;;;;14.11;100.00;98314.91;2107313;27;46558;-51
2024/02/26 02:45:36;;;;;;;;;3.00;3.00;;;;;14.12;100.00;98320.13;2097500;28;46394;-53
2024/02/26 02:46:37;;;;;;;;;2.00;2.00;;;;;14.08;100.00;98326.63;2099295;27;46214;-53
2024/02/26 02:47:40;;;;;;;;;2.00;2.00;;;;;14.04;100.00;98319.00;2106614;27;46416;-53
2024/02/26 02:48:42;;;;;;;;;3.00;2.00;;;;;13.96;100.00;98322.22;2106250;27;46197;-52
2024/02/26 02:49:42;;;;;;;;;2.25;2.00;;;;;13.89;100.00;98317.47;2107274;27;47013;-51
2024/02/26 02:50:43;;;;;;;;;2.00;2.00;;;;;13.89;100.00;98320.13;2108341;27;46651;-49
2024/02/26 02:51:43;;;;;;;;;3.00;3.00;;;;;13.99;100.00;98322.00;2107878;27;46656;-48
2024/02/26 02:52:44;;;;;;;;;2.00;2.00;;;;;14.03;100.00;98322.63;2107517;27;46304;-50
2024/02/26 02:53:44;;;;;;;;;4.33;2.67;;;;;13.98;100.00;98330.97;2108987;27;46489;-52
2024/02/26 02:54:44;;;;;;;;;2.00;2.00;;;;;14.12;100.00;98329.94;2107047;27;46503;-51
2024/02/26 02:55:45;;;;;;;;;2.67;2.67;;;;;14.11;100.00;98331.78;2107119;27;47245;-52
2024/02/26 02:56:45;;;;;;;;;2.67;2.00;;;;;14.20;100.00;98329.38;2108504;27;46313;-52
2024/02/26 02:57:45;;;;;;;;;2.67;2.67;;;;;14.21;100.00;98326.56;2106725;27;46223;-54
2024/02/26 02:58:46;;;;;;;;;1.00;1.00;;;;;14.23;100.00;98329.13;2108429;27;46360;-52
2024/02/26 02:59:46;;;;;;;;;2.00;2.00;;;;;14.25;100.00;98328.06;2105198;27;46433;-52
2024/02/26 03:00:46;;;;;;;;;3.67;2.00;;;;;14.25;100.00;98324.56;2107085;27;46383;-52
2024/02/26 03:01:47;;;;;;;;;5.00;4.00;;;;;14.27;100.00;98330.63;2108055;27;46723;-50
2024/02/26 03:02:47;;;;;;;;;3.00;3.00;;;;;14.27;100.00;98327.97;2105666;27;46603;-51
2024/02/26 03:03:47;;;;;;;;;3.00;2.00;;;;;14.26;100.00;98332.44;2105953;27;46710;-53
2024/02/26 03:04:48;;;;;;;;;3.00;2.00;;;;;14.25;100.00;98328.06;2108966;27;46855;-52
2024/02/26 03:05:48;;;;;;;;;1.67;1.67;;;;;14.28;100.00;98332.31;2095181;28;46369;-54
2024/02/26 03:06:48;;;;;;;;;3.00;3.00;;;;;14.27;100.00;98330.63;2095339;28;46446;-50
2024/02/26 03:07:49;;;;;;;;;2.00;2.00;;;;;14.27;100.00;98334.16;2107610;27;45646;-52
2024/02/26 03:08:49;;;;;;;;;1.33;1.00;;;;;14.28;100.00;98335.84;2107476;27;47152;-53
2024/02/26 03:09:49;;;;;;;;;4.00;2.67;;;;;14.28;100.00;98335.00;2107115;27;46435;-52
2024/02/26 03:10:50;;;;;;;;;4.33;3.00;;;;;14.27;100.00;98331.47;2107061;27;46687;-52
2024/02/26 03:11:50;;;;;;;;;1.67;1.67;;;;;14.29;100.00;98334.03;2106630;27;45107;-50
2024/02/26 03:12:50;;;;;;;;;2.67;2.67;;;;;14.30;100.00;98336.56;2108070;27;46710;-53
2024/02/26 03:13:51;;;;;;;;;3.00;2.00;;;;;14.31;100.00;98337.44;2096696;28;46219;-52
2024/02/26 03:14:51;;;;;;;;;4.00;4.00;;;;;14.31;100.00;98338.28;2098188;28;45499;-53
2024/02/26 03:15:52;;;;;;;;;4.00;4.00;;;;;14.33;100.00;98340.81;2107768;27;46456;-52
2024/02/26 03:16:55;;;;;;;;;1.00;1.00;;;;;14.37;100.00;98343.16;2099741;28;46317;-51
2024/02/26 03:17:55;;;;;;;;;3.00;2.00;;;;;14.33;100.00;98341.66;2099389;27;46696;-51
2024/02/26 03:18:55;;;;;;;;;4.00;3.00;;;;;14.36;100.00;98340.63;2107534;27;46466;-53
2024/02/26 03:19:56;;;;;;;;;4.00;3.00;;;;;14.33;100.00;98347.00;2107608;27;46394;-49
2024/02/26 03:20:56;;;;;;;;;3.00;3.00;;;;;14.34;100.00;98348.72;2105314;27;46463;-52
2024/02/26 03:21:56;;;;;;;;;1.00;1.00;;;;;14.36;100.00;98348.63;2106257;27;46134;-52
2024/02/26 03:22:57;;;;;;;;;2.33;2.33;;;;;14.34;100.00;98346.03;2093517;28;46554;-53
2024/02/26 03:23:57;;;;;;;;;3.67;3.33;;;;;14.35;100.00;98345.06;2093959;28;46793;-49
2024/02/26 03:24:57;;;;;;;;;3.00;3.00;;;;;14.36;100.00;98343.28;2107403;27;46570;-52
2024/02/26 03:25:58;;;;;;;;;4.00;2.00;;;;;14.33;100.00;98354.16;2107568;27;46450;-53
2024/02/26 03:26:58;;;;;;;;;1.67;1.67;;;;;14.34;100.00;98351.38;2107469;27;46306;-50
2024/02/26 03:27:58;;;;;;;;;2.33;2.33;;;;;14.35;100.00;98345.06;2106233;27;46566;-52
2024/02/26 03:28:59;;;;;;;;;2.33;2.33;;;;;14.36;100.00;98346.81;2097047;28;46916;-53
2024/02/26 03:29:59;;;;;;;;;3.00;3.00;;;;;14.35;100.00;98347.75;2097498;28;46731;-51
2024/02/26 03:31:02;;;;;;;;;3.00;3.00;;;;;14.37;100.00;98348.50;2107736;27;45970;-53
2024/02/26 03:32:02;;;;;;;;;2.00;2.00;;;;;14.35;100.00;98347.75;2108290;27;46591;-51
2024/02/26 03:33:03;;;;;;;;;1.33;1.33;;;;;14.36;100.00;98356.63;2111901;27;46446;-53
2024/02/26 03:34:03;;;;;;;;;3.00;3.00;;;;;14.29;100.00;98350.88;2111980;27;46920;-52
2024/02/26 03:35:04;;;;;;;;;2.00;2.00;;;;;14.35;100.00;98361.09;2111040;27;46273;-52
2024/02/26 03:36:05;;;;;;;;;3.00;2.67;;;;;14.20;100.00;98358.72;2111661;27;46197;-50
2024/02/26 03:37:06;;;;;;;;;3.33;2.00;;;;;14.19;100.00;98362.34;2110177;27;46628;-53
2024/02/26 03:38:06;;;;;;;;;3.25;3.00;;;;;14.23;100.00;98358.47;2111146;27;46553;-50
2024/02/26 03:39:07;;;;;;;;;1.67;1.67;;;;;14.24;100.00;98355.72;2111591;27;46159;-51
2024/02/26 03:40:08;;;;;;;;;2.00;2.00;;;;;14.26;100.00;98358.28;2111402;27;46400;-52
2024/02/26 03:41:08;;;;;;;;;2.00;2.00;;;;;14.13;100.00;98361.00;2111810;27;46393;-52
2024/02/26 03:42:08;;;;;;;;;1.67;1.67;;;;;14.19;100.00;98363.19;2112533;27;46207;-54
2024/02/26 03:43:09;;;;;;;;;2.67;2.00;;;;;14.14;100.00;98362.69;2092472;28;46681;-53
2024/02/26 03:44:09;;;;;;;;;2.00;1.00;;;;;14.17;100.00;98366.94;2093774;28;46432;-52
2024/02/26 03:45:10;;;;;;;;;4.33;4.00;;;;;14.12;100.00;98370.81;2110391;27;46792;-52
2024/02/26 03:46:11;;;;;;;;;2.00;1.33;;;;;14.17;100.00;98365.13;2111377;27;46853;-53
2024/02/26 03:47:12;;;;;;;;;5.50;3.25;;;;;14.18;100.00;98365.97;2111083;27;45902;-53
2024/02/26 03:48:12;;;;;;;;;2.00;2.00;;;;;14.18;100.00;98377.50;2112025;27;46614;-50
2024/02/26 03:49:13;;;;;;;;;2.00;2.00;;;;;14.19;100.00;98375.69;2099146;28;46677;-52
2024/02/26 03:50:13;;;;;;;;;3.00;2.33;;;;;14.19;100.00;98373.00;2099568;28;45525;-53
2024/02/26 03:51:14;;;;;;;;;3.67;2.00;;;;;14.22;100.00;98368.28;2111748;27;46130;-53
2024/02/26 03:52:14;;;;;;;;;3.67;1.00;;;;;14.16;100.00;98379.44;2111814;27;46320;-53
2024/02/26 03:53:15;;;;;;;;;4.00;3.00;;;;;14.16;100.00;98375.91;2111398;27;47423;-52
2024/02/26 03:54:15;;;;;;;;;3.33;3.00;;;;;14.20;100.00;98380.91;2108528;27;46284;-52
2024/02/26 03:55:18;;;;;;;;;3.00;3.00;;;;;14.14;100.00;98376.88;2110957;27;46696;-51
2024/02/26 03:56:18;;;;;;;;;4.25;2.00;;;;;14.25;100.00;98372.56;2112112;27;46938;-52
2024/02/26 03:57:18;;;;;;;;;3.00;3.00;;;;;14.23;100.00;98387.81;2111499;27;46653;-50
2024/02/26 03:58:19;;;;;;;;;1.33;1.00;;;;;14.20;100.00;98383.56;2111632;27;47083;-54
2024/02/26 03:59:19;;;;;;;;;7.67;3.67;;;;;14.25;100.00;98391.25;2108327;27;46054;-53
2024/02/26 04:00:20;;;;;;;;;3.67;2.67;;;;;14.22;100.00;98388.78;2111380;27;46350;-52
2024/02/26 04:01:20;;;;;;;;;3.33;3.33;;;;;14.20;100.00;98388.91;2106545;27;46117;-52
2024/02/26 04:02:22;;;;;;;;;4.33;3.00;;;;;14.23;100.00;98390.47;2102424;28;46305;-51
2024/02/26 04:03:23;;;;;;;;;3.00;3.00;;;;;14.21;100.00;98384.41;2094743;28;45650;-52
2024/02/26 04:04:23;;;;;;;;;1.33;1.00;;;;;14.24;100.00;98394.88;2099144;27;46642;-54
2024/02/26 04:05:23;;;;;;;;;4.00;3.00;;;;;14.21;100.00;98400.41;2110693;27;46696;-52
2024/02/26 04:06:24;;;;;;;;;2.67;2.67;;;;;14.20;100.00;98394.22;2111792;27;46403;-53
2024/02/26 04:07:24;;;;;;;;;2.00;2.00;;;;;14.15;100.00;98391.06;2099220;28;46800;-54
2024/02/26 04:08:24;;;;;;;;;2.00;2.00;;;;;14.08;100.00;98398.66;2098753;28;46523;-53
2024/02/26 04:09:25;;;;;;;;;2.33;2.00;;;;;14.04;100.00;98399.84;2111643;27;46823;-50
2024/02/26 04:10:25;;;;;;;;;2.00;2.00;;;;;14.01;100.00;98394.75;2110103;27;46611;-53
2024/02/26 04:11:25;;;;;;;;;1.67;1.67;;;;;14.10;100.00;98403.88;2109809;27;45770;-52
2024/02/26 04:12:26;;;;;;;;;3.00;2.00;;;;;14.02;100.00;98399.13;2111546;27;46665;-50
2024/02/26 04:13:26;;;;;;;;;5.00;2.67;;;;;14.06;100.00;98405.06;2110930;27;46441;-53
2024/02/26 04:14:26;;;;;;;;;4.33;2.00;;;;;14.06;100.00;98400.56;2098385;28;46043;-51
2024/02/26 04:15:27;;;;;;;;;2.00;2.00;;;;;14.07;100.00;98404.94;2098427;28;45840;-50
2024/02/26 04:16:27;;;;;;;;;4.00;2.00;;;;;14.06;100.00;98407.72;2098848;28;46226;-52
2024/02/26 04:17:27;;;;;;;;;2.00;2.00;;;;;14.06;100.00;98411.25;2098126;28;46638;-50
2024/02/26 04:18:28;;;;;;;;;2.00;2.00;;;;;14.08;100.00;98408.47;2111120;27;46379;-51
2024/02/26 04:19:29;;;;;;;;;2.50;2.50;;;;;14.07;100.00;98410.28;2109630;27;46823;-51
2024/02/26 04:20:29;;;;;;;;;2.67;1.00;;;;;14.04;100.00;98405.19;2112344;27;46264;-52
2024/02/26 04:21:29;;;;;;;;;3.00;3.00;;;;;14.14;100.00;98405.38;2110381;27;46555;-52
2024/02/26 04:22:30;;;;;;;;;4.00;2.00;;;;;14.19;100.00;98413.03;2101822;28;46599;-53
2024/02/26 04:23:30;;;;;;;;;3.00;2.00;;;;;14.20;100.00;98417.38;2101716;28;46715;-50
2024/02/26 04:24:30;;;;;;;;;2.67;2.00;;;;;14.21;100.00;98413.75;2110877;27;46510;-49
2024/02/26 04:25:31;;;;;;;;;3.00;1.33;;;;;14.23;100.00;98420.72;2111906;27;46808;-52
2024/02/26 04:26:31;;;;;;;;;2.67;2.67;;;;;14.24;100.00;98410.88;2111191;27;46844;-52
2024/02/26 04:27:31;;;;;;;;;1.33;1.33;;;;;14.24;100.00;98406.41;2110637;27;45614;-51
2024/02/26 04:28:32;;;;;;;;;3.00;3.00;;;;;14.22;100.00;98418.97;2110265;27;46885;-52
2024/02/26 04:29:32;;;;;;;;;1.00;1.00;;;;;14.19;100.00;98419.22;2111851;27;46666;-50
2024/02/26 04:30:32;;;;;;;;;2.00;2.00;;;;;14.20;100.00;98415.56;2111394;27;46489;-50
2024/02/26 04:31:33;;;;;;;;;2.00;2.00;;;;;14.19;100.00;98423.69;2109561;27;46884;-53
2024/02/26 04:32:34;;;;;;;;;3.00;2.00;;;;;14.10;100.00;98422.53;2107836;27;46218;-51
2024/02/26 04:33:34;;;;;;;;;2.00;2.00;;;;;14.21;100.00;98419.09;2106156;27;46752;-52
2024/02/26 04:34:35;;;;;;;;;1.00;1.00;;;;;14.09;100.00;98419.03;2106762;27;45304;-51
2024/02/26 04:35:35;;;;;;;;;3.00;3.00;;;;;14.19;100.00;98421.03;2106202;27;46730;-50
2024/02/26 04:36:35;;;;;;;;;3.00;2.00;;;;;14.24;100.00;98417.06;2105648;27;46265;-52
2024/02/26 04:37:36;;;;;;;;;2.00;1.00;;;;;14.20;100.00;98423.56;2107195;27;46613;-52
2024/02/26 04:38:36;;;;;;;;;1.00;1.00;;;;;14.26;100.00;98424.97;2107278;27;46862;-51
2024/02/26 04:39:36;;;;;;;;;1.00;1.00;;;;;14.23;100.00;98426.03;2097328;27;46602;-49
2024/02/26 04:40:37;;;;;;;;;2.00;2.00;;;;;14.23;100.00;98422.50;2099502;28;46261;-52
2024/02/26 04:41:37;;;;;;;;;1.00;1.00;;;;;14.22;100.00;98428.78;2107599;27;46251;-50